sensor_id;sensor_type;location;lat;lon;timestamp;temperature;humidity
8707;DHT22;4390;49.302;9.306;2022-12-07T00:01:20;3.50;98.30
8707;DHT22;4390;49.302;9.306;2022-12-07T00:03:50;3.40;98.30
8707;DHT22;4390;49.302;9.306;2022-12-07T00:06:18;3.40;98.30
8707;DHT22;4390;49.302;9.306;2022-12-07T00:08:46;3.30;98.30
8707;DHT22;4390;49.302;9.306;2022-12-07T00:11:18;3.30;98.30
8707;DHT22;4390;49.302;9.306;2022-12-07T00:13:46;3.30;98.30
8707;DHT22;4390;49.302;9.306;2022-12-07T00:16:15;3.30;98.30
8707;DHT22;4390;49.302;9.306;2022-12-07T00:18:43;3.20;98.00
8707;DHT22;4390;49.302;9.306;2022-12-07T00:21:15;3.20;98.00
8707;DHT22;4390;49.302;9.306;2022-12-07T00:23:43;3.30;97.70
8707;DHT22;4390;49.302;9.306;2022-12-07T00:26:19;3.40;97.60
8707;DHT22;4390;49.302;9.306;2022-12-07T00:28:48;3.30;97.10
8707;DHT22;4390;49.302;9.306;2022-12-07T00:31:17;3.20;97.40
8707;DHT22;4390;49.302;9.306;2022-12-07T00:33:44;3.00;97.40
8707;DHT22;4390;49.302;9.306;2022-12-07T00:36:13;2.80;97.90
8707;DHT22;4390;49.302;9.306;2022-12-07T00:38:41;2.70;98.00
8707;DHT22;4390;49.302;9.306;2022-12-07T00:41:16;2.60;97.90
8707;DHT22;4390;49.302;9.306;2022-12-07T00:43:44;2.50;98.20
8707;DHT22;4390;49.302;9.306;2022-12-07T00:46:12;2.50;98.10
8707;DHT22;4390;49.302;9.306;2022-12-07T00:48:39;2.50;98.10
8707;DHT22;4390;49.302;9.306;2022-12-07T00:51:07;2.30;98.10
8707;DHT22;4390;49.302;9.306;2022-12-07T00:53:34;2.30;98.30
8707;DHT22;4390;49.302;9.306;2022-12-07T00:56:09;2.70;97.90
8707;DHT22;4390;49.302;9.306;2022-12-07T00:58:35;2.60;97.10
8707;DHT22;4390;49.302;9.306;2022-12-07T01:01:04;2.50;97.50
8707;DHT22;4390;49.302;9.306;2022-12-07T01:03:31;2.30;97.60
8707;DHT22;4390;49.302;9.306;2022-12-07T01:05:58;2.20;97.80
8707;DHT22;4390;49.302;9.306;2022-12-07T01:08:27;2.20;98.10
8707;DHT22;4390;49.302;9.306;2022-12-07T01:11:03;2.30;98.20
8707;DHT22;4390;49.302;9.306;2022-12-07T01:13:30;2.20;98.00
8707;DHT22;4390;49.302;9.306;2022-12-07T01:15:59;2.30;98.10
8707;DHT22;4390;49.302;9.306;2022-12-07T01:18:27;2.40;97.90
8707;DHT22;4390;49.302;9.306;2022-12-07T01:21:03;2.50;97.80
8707;DHT22;4390;49.302;9.306;2022-12-07T01:23:31;2.50;97.50
8707;DHT22;4390;49.302;9.306;2022-12-07T01:26:00;2.50;97.40
8707;DHT22;4390;49.302;9.306;2022-12-07T01:28:27;2.40;97.50
8707;DHT22;4390;49.302;9.306;2022-12-07T01:31:16;2.30;98.00
8707;DHT22;4390;49.302;9.306;2022-12-07T01:33:45;2.40;98.20
8707;DHT22;4390;49.302;9.306;2022-12-07T01:36:15;2.50;97.60
8707;DHT22;4390;49.302;9.306;2022-12-07T01:38:43;2.40;98.00
8707;DHT22;4390;49.302;9.306;2022-12-07T01:41:10;2.40;98.00
8707;DHT22;4390;49.302;9.306;2022-12-07T01:44:08;2.50;98.00
8707;DHT22;4390;49.302;9.306;2022-12-07T01:46:35;2.70;97.60
8707;DHT22;4390;49.302;9.306;2022-12-07T01:49:04;2.60;97.50
8707;DHT22;4390;49.302;9.306;2022-12-07T01:51:32;2.50;97.30
8707;DHT22;4390;49.302;9.306;2022-12-07T01:54:00;2.10;97.90
8707;DHT22;4390;49.302;9.306;2022-12-07T01:56:28;2.10;98.30
8707;DHT22;4390;49.302;9.306;2022-12-07T01:58:56;2.20;98.30
8707;DHT22;4390;49.302;9.306;2022-12-07T02:01:24;2.30;98.30
8707;DHT22;4390;49.302;9.306;2022-12-07T02:03:52;2.60;98.10
8707;DHT22;4390;49.302;9.306;2022-12-07T02:06:22;2.70;97.80
8707;DHT22;4390;49.302;9.306;2022-12-07T02:08:50;2.60;97.50
8707;DHT22;4390;49.302;9.306;2022-12-07T02:11:18;2.40;97.80
8707;DHT22;4390;49.302;9.306;2022-12-07T02:13:46;2.40;98.20
8707;DHT22;4390;49.302;9.306;2022-12-07T02:19:24;2.50;98.10
8707;DHT22;4390;49.302;9.306;2022-12-07T02:22:01;2.70;97.70
8707;DHT22;4390;49.302;9.306;2022-12-07T02:30:01;2.70;97.70
8707;DHT22;4390;49.302;9.306;2022-12-07T02:37:42;2.40;98.30
8707;DHT22;4390;49.302;9.306;2022-12-07T02:40:25;2.40;98.30
8707;DHT22;4390;49.302;9.306;2022-12-07T02:43:02;2.50;98.10
8707;DHT22;4390;49.302;9.306;2022-12-07T02:45:31;2.60;98.20
8707;DHT22;4390;49.302;9.306;2022-12-07T02:48:00;2.80;98.10
8707;DHT22;4390;49.302;9.306;2022-12-07T02:50:28;2.80;97.80
8707;DHT22;4390;49.302;9.306;2022-12-07T02:52:55;2.80;97.70
8707;DHT22;4390;49.302;9.306;2022-12-07T02:55:27;2.50;98.10
8707;DHT22;4390;49.302;9.306;2022-12-07T03:01:27;2.40;98.30
8707;DHT22;4390;49.302;9.306;2022-12-07T03:04:17;2.60;98.30
8707;DHT22;4390;49.302;9.306;2022-12-07T03:07:06;2.60;98.30
8707;DHT22;4390;49.302;9.306;2022-12-07T03:09:51;2.60;98.30
8707;DHT22;4390;49.302;9.306;2022-12-07T03:12:31;2.60;98.30
8707;DHT22;4390;49.302;9.306;2022-12-07T03:15:10;2.70;98.30
8707;DHT22;4390;49.302;9.306;2022-12-07T03:17:40;2.80;98.30
8707;DHT22;4390;49.302;9.306;2022-12-07T03:20:11;2.80;98.30
8707;DHT22;4390;49.302;9.306;2022-12-07T03:22:40;2.80;98.30
8707;DHT22;4390;49.302;9.306;2022-12-07T03:25:11;2.70;98.30
8707;DHT22;4390;49.302;9.306;2022-12-07T03:27:48;2.70;98.30
8707;DHT22;4390;49.302;9.306;2022-12-07T03:30:19;2.90;98.30
8707;DHT22;4390;49.302;9.306;2022-12-07T03:32:58;2.90;98.30
8707;DHT22;4390;49.302;9.306;2022-12-07T03:35:31;3.00;98.30
8707;DHT22;4390;49.302;9.306;2022-12-07T03:40:55;3.10;98.30
8707;DHT22;4390;49.302;9.306;2022-12-07T03:43:25;3.20;98.30
8707;DHT22;4390;49.302;9.306;2022-12-07T03:48:56;3.10;98.30
8707;DHT22;4390;49.302;9.306;2022-12-07T03:56:47;3.10;98.30
8707;DHT22;4390;49.302;9.306;2022-12-07T03:59:15;3.30;98.30
8707;DHT22;4390;49.302;9.306;2022-12-07T04:01:53;3.40;98.30
8707;DHT22;4390;49.302;9.306;2022-12-07T04:04:22;3.50;98.30
8707;DHT22;4390;49.302;9.306;2022-12-07T04:06:49;3.60;98.30
8707;DHT22;4390;49.302;9.306;2022-12-07T04:09:17;3.60;98.30
8707;DHT22;4390;49.302;9.306;2022-12-07T04:11:43;3.50;98.10
8707;DHT22;4390;49.302;9.306;2022-12-07T04:14:10;3.30;98.20
8707;DHT22;4390;49.302;9.306;2022-12-07T04:16:53;3.20;98.30
8707;DHT22;4390;49.302;9.306;2022-12-07T04:19:22;3.20;98.30
8707;DHT22;4390;49.302;9.306;2022-12-07T04:21:50;3.20;98.30
8707;DHT22;4390;49.302;9.306;2022-12-07T04:24:17;3.30;98.30
8707;DHT22;4390;49.302;9.306;2022-12-07T04:26:44;3.30;98.30
8707;DHT22;4390;49.302;9.306;2022-12-07T04:29:11;3.30;98.30
8707;DHT22;4390;49.302;9.306;2022-12-07T04:31:39;3.20;98.30
8707;DHT22;4390;49.302;9.306;2022-12-07T04:34:06;3.20;98.30
8707;DHT22;4390;49.302;9.306;2022-12-07T04:36:33;3.20;98.30
8707;DHT22;4390;49.302;9.306;2022-12-07T04:39:01;3.30;98.30
8707;DHT22;4390;49.302;9.306;2022-12-07T04:41:28;3.30;98.30
8707;DHT22;4390;49.302;9.306;2022-12-07T04:43:55;3.20;98.30
8707;DHT22;4390;49.302;9.306;2022-12-07T04:46:23;3.30;98.30
8707;DHT22;4390;49.302;9.306;2022-12-07T04:48:52;3.30;98.30
8707;DHT22;4390;49.302;9.306;2022-12-07T04:51:24;3.00;98.30
8707;DHT22;4390;49.302;9.306;2022-12-07T04:53:52;3.00;98.30
8707;DHT22;4390;49.302;9.306;2022-12-07T04:56:19;3.00;98.30
8707;DHT22;4390;49.302;9.306;2022-12-07T04:58:48;3.20;98.30
8707;DHT22;4390;49.302;9.306;2022-12-07T05:01:16;3.20;98.30
8707;DHT22;4390;49.302;9.306;2022-12-07T05:03:43;3.20;98.30
8707;DHT22;4390;49.302;9.306;2022-12-07T05:06:11;3.20;98.30
8707;DHT22;4390;49.302;9.306;2022-12-07T05:08:40;3.30;98.30
8707;DHT22;4390;49.302;9.306;2022-12-07T05:11:07;3.20;98.30
8707;DHT22;4390;49.302;9.306;2022-12-07T05:13:35;3.30;98.30
8707;DHT22;4390;49.302;9.306;2022-12-07T05:16:02;3.30;98.30
8707;DHT22;4390;49.302;9.306;2022-12-07T05:18:29;3.40;98.30
8707;DHT22;4390;49.302;9.306;2022-12-07T05:20:56;3.30;98.30
8707;DHT22;4390;49.302;9.306;2022-12-07T05:23:23;3.40;98.30
8707;DHT22;4390;49.302;9.306;2022-12-07T05:25:49;3.50;98.30
8707;DHT22;4390;49.302;9.306;2022-12-07T05:28:16;3.60;98.30
8707;DHT22;4390;49.302;9.306;2022-12-07T05:30:43;3.50;98.30
8707;DHT22;4390;49.302;9.306;2022-12-07T05:33:10;3.40;98.30
8707;DHT22;4390;49.302;9.306;2022-12-07T05:35:36;3.30;98.30
8707;DHT22;4390;49.302;9.306;2022-12-07T05:38:04;3.50;98.30
8707;DHT22;4390;49.302;9.306;2022-12-07T05:40:31;3.50;98.30
8707;DHT22;4390;49.302;9.306;2022-12-07T05:42:57;3.60;98.30
8707;DHT22;4390;49.302;9.306;2022-12-07T05:45:30;3.80;98.30
8707;DHT22;4390;49.302;9.306;2022-12-07T05:47:57;3.70;98.30
8707;DHT22;4390;49.302;9.306;2022-12-07T05:50:23;3.60;98.20
8707;DHT22;4390;49.302;9.306;2022-12-07T05:52:59;3.40;98.30
8707;DHT22;4390;49.302;9.306;2022-12-07T05:55:26;3.30;98.30
8707;DHT22;4390;49.302;9.306;2022-12-07T05:57:53;3.20;98.30
8707;DHT22;4390;49.302;9.306;2022-12-07T06:00:38;3.40;98.30
8707;DHT22;4390;49.302;9.306;2022-12-07T06:03:05;3.60;98.30
8707;DHT22;4390;49.302;9.306;2022-12-07T06:05:32;3.40;98.30
8707;DHT22;4390;49.302;9.306;2022-12-07T06:07:59;3.40;98.30
8707;DHT22;4390;49.302;9.306;2022-12-07T06:10:31;3.30;98.30
8707;DHT22;4390;49.302;9.306;2022-12-07T06:12:58;3.30;98.30
8707;DHT22;4390;49.302;9.306;2022-12-07T06:15:25;3.20;98.30
8707;DHT22;4390;49.302;9.306;2022-12-07T06:17:52;3.20;98.30
8707;DHT22;4390;49.302;9.306;2022-12-07T06:20:18;3.10;98.30
8707;DHT22;4390;49.302;9.306;2022-12-07T06:22:45;3.10;98.30
8707;DHT22;4390;49.302;9.306;2022-12-07T06:25:12;3.10;98.30
8707;DHT22;4390;49.302;9.306;2022-12-07T06:27:38;3.10;98.30
8707;DHT22;4390;49.302;9.306;2022-12-07T06:30:06;3.10;98.30
8707;DHT22;4390;49.302;9.306;2022-12-07T06:32:33;3.20;98.30
8707;DHT22;4390;49.302;9.306;2022-12-07T06:35:00;3.10;98.30
8707;DHT22;4390;49.302;9.306;2022-12-07T06:37:27;3.10;98.30
8707;DHT22;4390;49.302;9.306;2022-12-07T06:39:54;3.20;98.30
8707;DHT22;4390;49.302;9.306;2022-12-07T06:42:21;3.20;98.30
8707;DHT22;4390;49.302;9.306;2022-12-07T06:44:48;3.20;98.30
8707;DHT22;4390;49.302;9.306;2022-12-07T06:47:15;3.40;98.30
8707;DHT22;4390;49.302;9.306;2022-12-07T06:50:02;3.50;98.30
8707;DHT22;4390;49.302;9.306;2022-12-07T06:52:30;3.40;98.30
8707;DHT22;4390;49.302;9.306;2022-12-07T06:54:57;3.40;98.30
8707;DHT22;4390;49.302;9.306;2022-12-07T06:57:25;3.50;98.30
8707;DHT22;4390;49.302;9.306;2022-12-07T06:59:52;3.60;98.30
8707;DHT22;4390;49.302;9.306;2022-12-07T07:02:18;3.60;98.30
8707;DHT22;4390;49.302;9.306;2022-12-07T07:04:45;3.50;98.30
8707;DHT22;4390;49.302;9.306;2022-12-07T07:07:12;3.50;98.30
8707;DHT22;4390;49.302;9.306;2022-12-07T07:09:39;3.50;98.30
8707;DHT22;4390;49.302;9.306;2022-12-07T07:12:05;3.40;98.30
8707;DHT22;4390;49.302;9.306;2022-12-07T07:14:32;3.30;98.30
8707;DHT22;4390;49.302;9.306;2022-12-07T07:16:59;3.40;98.30
8707;DHT22;4390;49.302;9.306;2022-12-07T07:19:26;3.40;98.30
8707;DHT22;4390;49.302;9.306;2022-12-07T07:21:53;3.40;98.30
8707;DHT22;4390;49.302;9.306;2022-12-07T07:24:20;3.30;98.30
8707;DHT22;4390;49.302;9.306;2022-12-07T07:26:46;3.10;98.30
8707;DHT22;4390;49.302;9.306;2022-12-07T07:29:13;3.00;98.30
8707;DHT22;4390;49.302;9.306;2022-12-07T07:31:40;3.00;98.30
8707;DHT22;4390;49.302;9.306;2022-12-07T07:34:06;3.00;98.30
8707;DHT22;4390;49.302;9.306;2022-12-07T07:36:33;3.00;98.30
8707;DHT22;4390;49.302;9.306;2022-12-07T07:39:00;3.00;98.30
8707;DHT22;4390;49.302;9.306;2022-12-07T07:41:26;3.00;98.30
8707;DHT22;4390;49.302;9.306;2022-12-07T07:43:53;3.00;98.30
8707;DHT22;4390;49.302;9.306;2022-12-07T07:46:20;2.80;98.30
8707;DHT22;4390;49.302;9.306;2022-12-07T07:48:47;2.80;98.30
8707;DHT22;4390;49.302;9.306;2022-12-07T07:51:14;2.90;98.30
8707;DHT22;4390;49.302;9.306;2022-12-07T07:53:40;3.00;98.30
8707;DHT22;4390;49.302;9.306;2022-12-07T07:56:07;3.20;98.30
8707;DHT22;4390;49.302;9.306;2022-12-07T07:58:34;3.20;98.30
8707;DHT22;4390;49.302;9.306;2022-12-07T08:01:05;3.20;98.30
8707;DHT22;4390;49.302;9.306;2022-12-07T08:03:33;3.30;98.30
8707;DHT22;4390;49.302;9.306;2022-12-07T08:06:01;3.50;98.30
8707;DHT22;4390;49.302;9.306;2022-12-07T08:08:28;3.60;98.00
8707;DHT22;4390;49.302;9.306;2022-12-07T08:10:54;3.60;97.80
8707;DHT22;4390;49.302;9.306;2022-12-07T08:13:21;3.50;97.80
8707;DHT22;4390;49.302;9.306;2022-12-07T08:15:56;3.40;98.10
8707;DHT22;4390;49.302;9.306;2022-12-07T08:18:23;3.40;98.10
8707;DHT22;4390;49.302;9.306;2022-12-07T08:20:49;3.40;98.30
8707;DHT22;4390;49.302;9.306;2022-12-07T08:23:16;3.40;98.30
8707;DHT22;4390;49.302;9.306;2022-12-07T08:25:43;3.50;98.20
8707;DHT22;4390;49.302;9.306;2022-12-07T08:28:09;3.40;98.00
8707;DHT22;4390;49.302;9.306;2022-12-07T08:30:36;3.20;98.20
8707;DHT22;4390;49.302;9.306;2022-12-07T08:33:03;3.10;98.30
8707;DHT22;4390;49.302;9.306;2022-12-07T08:35:32;3.10;98.30
8707;DHT22;4390;49.302;9.306;2022-12-07T08:37:58;3.20;98.30
8707;DHT22;4390;49.302;9.306;2022-12-07T08:40:25;3.40;98.30
8707;DHT22;4390;49.302;9.306;2022-12-07T08:42:52;3.50;98.30
8707;DHT22;4390;49.302;9.306;2022-12-07T08:45:20;3.40;98.20
8707;DHT22;4390;49.302;9.306;2022-12-07T08:48:01;3.60;98.10
8707;DHT22;4390;49.302;9.306;2022-12-07T08:50:31;3.70;97.70
8707;DHT22;4390;49.302;9.306;2022-12-07T08:52:59;3.60;97.70
8707;DHT22;4390;49.302;9.306;2022-12-07T08:55:27;3.60;97.80
8707;DHT22;4390;49.302;9.306;2022-12-07T08:57:57;3.60;98.00
8707;DHT22;4390;49.302;9.306;2022-12-07T09:00:25;3.90;97.80
8707;DHT22;4390;49.302;9.306;2022-12-07T09:02:53;4.00;97.20
8707;DHT22;4390;49.302;9.306;2022-12-07T09:05:20;4.00;97.00
8707;DHT22;4390;49.302;9.306;2022-12-07T09:07:51;4.20;97.20
8707;DHT22;4390;49.302;9.306;2022-12-07T09:10:19;4.20;96.80
8707;DHT22;4390;49.302;9.306;2022-12-07T09:12:46;4.20;96.80
8707;DHT22;4390;49.302;9.306;2022-12-07T09:15:12;4.30;96.50
8707;DHT22;4390;49.302;9.306;2022-12-07T09:17:39;4.20;96.30
8707;DHT22;4390;49.302;9.306;2022-12-07T09:20:06;4.00;96.60
8707;DHT22;4390;49.302;9.306;2022-12-07T09:22:33;4.00;96.60
8707;DHT22;4390;49.302;9.306;2022-12-07T09:25:01;3.80;96.80
8707;DHT22;4390;49.302;9.306;2022-12-07T09:27:28;3.80;97.10
8707;DHT22;4390;49.302;9.306;2022-12-07T09:29:55;3.80;97.00
8707;DHT22;4390;49.302;9.306;2022-12-07T09:32:22;3.80;97.20
8707;DHT22;4390;49.302;9.306;2022-12-07T09:34:49;3.80;97.20
8707;DHT22;4390;49.302;9.306;2022-12-07T09:37:16;3.90;96.90
8707;DHT22;4390;49.302;9.306;2022-12-07T09:39:43;4.00;96.40
8707;DHT22;4390;49.302;9.306;2022-12-07T09:42:36;4.10;96.40
8707;DHT22;4390;49.302;9.306;2022-12-07T09:45:10;4.30;96.40
8707;DHT22;4390;49.302;9.306;2022-12-07T09:47:38;4.40;96.10
8707;DHT22;4390;49.302;9.306;2022-12-07T09:50:12;4.50;95.80
8707;DHT22;4390;49.302;9.306;2022-12-07T09:52:40;4.40;96.00
8707;DHT22;4390;49.302;9.306;2022-12-07T09:55:12;4.20;96.40
8707;DHT22;4390;49.302;9.306;2022-12-07T09:57:40;4.10;96.80
8707;DHT22;4390;49.302;9.306;2022-12-07T10:00:14;4.20;96.90
8707;DHT22;4390;49.302;9.306;2022-12-07T10:05:18;4.30;96.50
8707;DHT22;4390;49.302;9.306;2022-12-07T10:07:50;4.10;96.80
8707;DHT22;4390;49.302;9.306;2022-12-07T10:10:34;3.80;97.60
8707;DHT22;4390;49.302;9.306;2022-12-07T10:13:10;3.70;98.10
8707;DHT22;4390;49.302;9.306;2022-12-07T10:23:39;3.90;97.90
8707;DHT22;4390;49.302;9.306;2022-12-07T10:26:21;3.90;98.10
8707;DHT22;4390;49.302;9.306;2022-12-07T10:28:51;3.80;97.50
8707;DHT22;4390;49.302;9.306;2022-12-07T10:31:20;3.50;98.20
8707;DHT22;4390;49.302;9.306;2022-12-07T10:41:27;3.70;98.30
8707;DHT22;4390;49.302;9.306;2022-12-07T10:43:55;4.00;98.00
8707;DHT22;4390;49.302;9.306;2022-12-07T10:55:25;4.30;97.00
8707;DHT22;4390;49.302;9.306;2022-12-07T11:03:54;3.80;98.30
8707;DHT22;4390;49.302;9.306;2022-12-07T11:06:34;3.70;98.30
8707;DHT22;4390;49.302;9.306;2022-12-07T11:15:17;4.20;97.70
8707;DHT22;4390;49.302;9.306;2022-12-07T11:26:34;4.10;97.60
8707;DHT22;4390;49.302;9.306;2022-12-07T11:29:47;4.10;97.80
8707;DHT22;4390;49.302;9.306;2022-12-07T11:35:15;4.10;97.50
8707;DHT22;4390;49.302;9.306;2022-12-07T11:37:45;3.90;97.90
8707;DHT22;4390;49.302;9.306;2022-12-07T11:40:31;3.90;98.20
8707;DHT22;4390;49.302;9.306;2022-12-07T11:43:16;4.00;97.70
8707;DHT22;4390;49.302;9.306;2022-12-07T11:45:48;4.00;98.10
8707;DHT22;4390;49.302;9.306;2022-12-07T11:51:12;3.90;98.30
8707;DHT22;4390;49.302;9.306;2022-12-07T11:53:43;4.20;98.30
8707;DHT22;4390;49.302;9.306;2022-12-07T11:56:15;4.50;97.60
8707;DHT22;4390;49.302;9.306;2022-12-07T12:06:38;4.30;97.80
8707;DHT22;4390;49.302;9.306;2022-12-07T12:09:12;4.50;97.50
8707;DHT22;4390;49.302;9.306;2022-12-07T12:18:03;4.90;96.40
8707;DHT22;4390;49.302;9.306;2022-12-07T12:20:40;4.80;96.80
8707;DHT22;4390;49.302;9.306;2022-12-07T12:23:20;4.80;96.30
8707;DHT22;4390;49.302;9.306;2022-12-07T12:25:51;4.60;96.50
8707;DHT22;4390;49.302;9.306;2022-12-07T12:28:50;4.70;96.50
8707;DHT22;4390;49.302;9.306;2022-12-07T12:33:58;4.80;96.20
8707;DHT22;4390;49.302;9.306;2022-12-07T12:39:16;4.90;95.80
8707;DHT22;4390;49.302;9.306;2022-12-07T12:54:36;4.40;97.30
8707;DHT22;4390;49.302;9.306;2022-12-07T12:57:13;4.60;96.90
8707;DHT22;4390;49.302;9.306;2022-12-07T13:21:01;4.80;96.20
8707;DHT22;4390;49.302;9.306;2022-12-07T13:23:36;4.90;95.70
8707;DHT22;4390;49.302;9.306;2022-12-07T13:26:33;4.90;95.80
8707;DHT22;4390;49.302;9.306;2022-12-07T13:31:45;5.40;94.60
8707;DHT22;4390;49.302;9.306;2022-12-07T13:34:31;5.30;94.60
8707;DHT22;4390;49.302;9.306;2022-12-07T13:37:28;5.60;94.70
8707;DHT22;4390;49.302;9.306;2022-12-07T13:40:19;5.80;94.30
8707;DHT22;4390;49.302;9.306;2022-12-07T13:42:47;5.30;93.50
8707;DHT22;4390;49.302;9.306;2022-12-07T13:45:25;5.00;94.40
8707;DHT22;4390;49.302;9.306;2022-12-07T13:50:57;4.60;95.80
8707;DHT22;4390;49.302;9.306;2022-12-07T13:53:24;4.70;95.50
8707;DHT22;4390;49.302;9.306;2022-12-07T13:55:54;4.50;95.90
8707;DHT22;4390;49.302;9.306;2022-12-07T13:58:22;4.40;96.20
8707;DHT22;4390;49.302;9.306;2022-12-07T14:00:49;4.40;96.20
8707;DHT22;4390;49.302;9.306;2022-12-07T14:05:44;4.50;95.80
8707;DHT22;4390;49.302;9.306;2022-12-07T14:11:04;4.60;96.10
8707;DHT22;4390;49.302;9.306;2022-12-07T14:13:35;4.70;95.60
8707;DHT22;4390;49.302;9.306;2022-12-07T14:18:49;4.70;96.00
8707;DHT22;4390;49.302;9.306;2022-12-07T14:21:19;4.80;95.50
8707;DHT22;4390;49.302;9.306;2022-12-07T14:24:19;4.70;95.50
8707;DHT22;4390;49.302;9.306;2022-12-07T14:26:49;4.70;95.80
8707;DHT22;4390;49.302;9.306;2022-12-07T14:31:54;5.10;95.20
8707;DHT22;4390;49.302;9.306;2022-12-07T14:34:22;5.10;95.20
8707;DHT22;4390;49.302;9.306;2022-12-07T14:36:49;5.20;94.40
8707;DHT22;4390;49.302;9.306;2022-12-07T14:39:17;5.00;94.80
8707;DHT22;4390;49.302;9.306;2022-12-07T14:41:44;5.00;95.30
8707;DHT22;4390;49.302;9.306;2022-12-07T14:44:17;5.00;95.10
8707;DHT22;4390;49.302;9.306;2022-12-07T14:46:52;5.10;94.90
8707;DHT22;4390;49.302;9.306;2022-12-07T14:49:40;5.10;95.10
8707;DHT22;4390;49.302;9.306;2022-12-07T14:52:15;5.10;95.20
8707;DHT22;4390;49.302;9.306;2022-12-07T14:55:02;5.10;95.60
8707;DHT22;4390;49.302;9.306;2022-12-07T14:57:30;5.10;95.30
8707;DHT22;4390;49.302;9.306;2022-12-07T14:59:56;5.00;95.60
8707;DHT22;4390;49.302;9.306;2022-12-07T15:02:23;4.90;96.00
8707;DHT22;4390;49.302;9.306;2022-12-07T15:04:50;4.70;95.80
8707;DHT22;4390;49.302;9.306;2022-12-07T15:07:19;4.70;96.40
8707;DHT22;4390;49.302;9.306;2022-12-07T15:09:47;4.70;96.90
8707;DHT22;4390;49.302;9.306;2022-12-07T15:12:14;5.00;96.80
8707;DHT22;4390;49.302;9.306;2022-12-07T15:14:41;5.10;96.40
8707;DHT22;4390;49.302;9.306;2022-12-07T15:17:10;5.10;96.40
8707;DHT22;4390;49.302;9.306;2022-12-07T15:19:51;5.20;96.60
8707;DHT22;4390;49.302;9.306;2022-12-07T15:22:18;5.20;96.20
8707;DHT22;4390;49.302;9.306;2022-12-07T15:24:45;5.30;95.90
8707;DHT22;4390;49.302;9.306;2022-12-07T15:27:11;5.10;96.30
8707;DHT22;4390;49.302;9.306;2022-12-07T15:29:38;5.10;96.40
8707;DHT22;4390;49.302;9.306;2022-12-07T15:32:05;5.00;96.50
8707;DHT22;4390;49.302;9.306;2022-12-07T15:34:32;4.80;97.10
8707;DHT22;4390;49.302;9.306;2022-12-07T15:37:06;4.90;96.90
8707;DHT22;4390;49.302;9.306;2022-12-07T15:39:33;5.00;97.00
8707;DHT22;4390;49.302;9.306;2022-12-07T15:42:00;5.10;96.50
8707;DHT22;4390;49.302;9.306;2022-12-07T15:44:27;5.00;96.70
8707;DHT22;4390;49.302;9.306;2022-12-07T15:47:13;5.00;96.90
8707;DHT22;4390;49.302;9.306;2022-12-07T15:49:39;4.80;97.40
8707;DHT22;4390;49.302;9.306;2022-12-07T15:52:06;4.60;97.90
8707;DHT22;4390;49.302;9.306;2022-12-07T15:54:33;4.60;98.00
8707;DHT22;4390;49.302;9.306;2022-12-07T15:56:59;4.70;97.80
8707;DHT22;4390;49.302;9.306;2022-12-07T15:59:27;4.70;97.30
8707;DHT22;4390;49.302;9.306;2022-12-07T16:01:55;4.40;97.50
8707;DHT22;4390;49.302;9.306;2022-12-07T16:04:22;4.30;98.00
8707;DHT22;4390;49.302;9.306;2022-12-07T16:06:49;4.40;98.00
8707;DHT22;4390;49.302;9.306;2022-12-07T16:09:17;4.30;98.20
8707;DHT22;4390;49.302;9.306;2022-12-07T16:11:45;4.40;98.30
8707;DHT22;4390;49.302;9.306;2022-12-07T16:14:12;4.70;98.20
8707;DHT22;4390;49.302;9.306;2022-12-07T16:16:39;4.70;98.00
8707;DHT22;4390;49.302;9.306;2022-12-07T16:19:07;4.90;97.90
8707;DHT22;4390;49.302;9.306;2022-12-07T16:21:35;4.90;97.60
8707;DHT22;4390;49.302;9.306;2022-12-07T16:24:02;5.00;97.30
8707;DHT22;4390;49.302;9.306;2022-12-07T16:26:29;5.10;97.00
8707;DHT22;4390;49.302;9.306;2022-12-07T16:28:57;5.00;96.70
8707;DHT22;4390;49.302;9.306;2022-12-07T16:31:25;4.90;96.90
8707;DHT22;4390;49.302;9.306;2022-12-07T16:33:53;4.90;96.80
8707;DHT22;4390;49.302;9.306;2022-12-07T16:36:21;4.90;96.50
8707;DHT22;4390;49.302;9.306;2022-12-07T16:39:09;4.80;96.50
8707;DHT22;4390;49.302;9.306;2022-12-07T16:41:35;4.80;96.70
8707;DHT22;4390;49.302;9.306;2022-12-07T16:44:08;4.90;96.60
8707;DHT22;4390;49.302;9.306;2022-12-07T16:46:36;5.00;96.50
8707;DHT22;4390;49.302;9.306;2022-12-07T16:49:03;5.00;95.90
8707;DHT22;4390;49.302;9.306;2022-12-07T16:51:30;4.90;96.20
8707;DHT22;4390;49.302;9.306;2022-12-07T16:53:57;4.90;96.40
8707;DHT22;4390;49.302;9.306;2022-12-07T16:56:25;4.90;96.30
8707;DHT22;4390;49.302;9.306;2022-12-07T16:58:53;4.80;96.20
8707;DHT22;4390;49.302;9.306;2022-12-07T17:01:21;4.90;96.40
8707;DHT22;4390;49.302;9.306;2022-12-07T17:03:49;4.90;96.70
8707;DHT22;4390;49.302;9.306;2022-12-07T17:06:21;4.90;96.00
8707;DHT22;4390;49.302;9.306;2022-12-07T17:08:49;4.60;96.30
8707;DHT22;4390;49.302;9.306;2022-12-07T17:11:19;4.50;97.10
8707;DHT22;4390;49.302;9.306;2022-12-07T17:13:46;4.60;97.00
8707;DHT22;4390;49.302;9.306;2022-12-07T17:16:31;4.50;96.60
8707;DHT22;4390;49.302;9.306;2022-12-07T17:18:58;4.30;97.40
8707;DHT22;4390;49.302;9.306;2022-12-07T17:21:25;4.30;97.30
8707;DHT22;4390;49.302;9.306;2022-12-07T17:23:52;4.30;97.40
8707;DHT22;4390;49.302;9.306;2022-12-07T17:26:22;4.20;97.60
8707;DHT22;4390;49.302;9.306;2022-12-07T17:28:49;4.10;97.70
8707;DHT22;4390;49.302;9.306;2022-12-07T17:31:17;4.20;97.70
8707;DHT22;4390;49.302;9.306;2022-12-07T17:33:45;3.90;97.90
8707;DHT22;4390;49.302;9.306;2022-12-07T17:36:35;3.60;98.30
8707;DHT22;4390;49.302;9.306;2022-12-07T17:39:07;3.50;98.30
8707;DHT22;4390;49.302;9.306;2022-12-07T17:41:34;3.40;98.30
8707;DHT22;4390;49.302;9.306;2022-12-07T17:44:19;3.40;98.30
8707;DHT22;4390;49.302;9.306;2022-12-07T17:46:50;3.30;98.30
8707;DHT22;4390;49.302;9.306;2022-12-07T17:49:21;3.20;98.30
8707;DHT22;4390;49.302;9.306;2022-12-07T17:51:47;3.20;98.30
8707;DHT22;4390;49.302;9.306;2022-12-07T17:54:33;3.30;98.30
8707;DHT22;4390;49.302;9.306;2022-12-07T17:57:00;3.40;98.30
8707;DHT22;4390;49.302;9.306;2022-12-07T17:59:27;3.60;98.30
8707;DHT22;4390;49.302;9.306;2022-12-07T18:01:54;3.60;98.30
8707;DHT22;4390;49.302;9.306;2022-12-07T18:04:21;3.50;98.30
8707;DHT22;4390;49.302;9.306;2022-12-07T18:06:47;3.40;98.30
8707;DHT22;4390;49.302;9.306;2022-12-07T18:09:18;3.10;98.30
8707;DHT22;4390;49.302;9.306;2022-12-07T18:11:46;3.20;98.30
8707;DHT22;4390;49.302;9.306;2022-12-07T18:14:13;3.10;98.30
8707;DHT22;4390;49.302;9.306;2022-12-07T18:16:39;3.10;98.30
8707;DHT22;4390;49.302;9.306;2022-12-07T18:19:07;2.90;98.30
8707;DHT22;4390;49.302;9.306;2022-12-07T18:21:34;2.90;98.30
8707;DHT22;4390;49.302;9.306;2022-12-07T18:24:02;3.10;98.30
8707;DHT22;4390;49.302;9.306;2022-12-07T18:26:32;3.10;98.30
8707;DHT22;4390;49.302;9.306;2022-12-07T18:28:59;3.30;98.30
8707;DHT22;4390;49.302;9.306;2022-12-07T18:31:27;3.30;98.30
8707;DHT22;4390;49.302;9.306;2022-12-07T18:33:55;3.20;98.30
8707;DHT22;4390;49.302;9.306;2022-12-07T18:36:22;3.10;98.30
8707;DHT22;4390;49.302;9.306;2022-12-07T18:38:50;3.10;98.30
8707;DHT22;4390;49.302;9.306;2022-12-07T18:41:17;3.20;98.30
8707;DHT22;4390;49.302;9.306;2022-12-07T18:43:44;3.30;98.30
8707;DHT22;4390;49.302;9.306;2022-12-07T18:46:14;3.20;98.30
8707;DHT22;4390;49.302;9.306;2022-12-07T18:48:42;3.20;98.30
8707;DHT22;4390;49.302;9.306;2022-12-07T18:51:10;3.20;98.30
8707;DHT22;4390;49.302;9.306;2022-12-07T18:53:38;3.40;98.30
8707;DHT22;4390;49.302;9.306;2022-12-07T18:56:12;3.60;98.30
8707;DHT22;4390;49.302;9.306;2022-12-07T18:58:39;3.80;98.30
8707;DHT22;4390;49.302;9.306;2022-12-07T19:01:30;3.80;98.30
8707;DHT22;4390;49.302;9.306;2022-12-07T19:03:58;3.90;98.30
8707;DHT22;4390;49.302;9.306;2022-12-07T19:06:25;3.90;98.10
8707;DHT22;4390;49.302;9.306;2022-12-07T19:08:53;3.80;98.00